createdAt,value
2018-07-21T00:04:34.288Z,59.90
2018-07-21T00:09:29.945Z,60.30
2018-07-21T00:14:24.903Z,60.40
2018-07-21T00:19:19.830Z,61.00
2018-07-21T00:24:15.161Z,61.80
2018-07-21T00:29:11.726Z,62.80
2018-07-21T00:34:07.139Z,64.10
2018-07-21T00:39:01.770Z,64.60
2018-07-21T00:43:56.266Z,65.70
2018-07-21T00:48:51.209Z,66.40
2018-07-21T00:53:46.099Z,68.00
2018-07-21T00:58:41.752Z,69.00
2018-07-21T01:03:35.928Z,70.10
2018-07-21T01:08:30.539Z,71.10
2018-07-21T01:13:25.150Z,71.90
2018-07-21T01:18:19.667Z,72.60
2018-07-21T01:23:14.100Z,73.00
2018-07-21T01:28:09.056Z,73.20
2018-07-21T01:33:03.560Z,74.50
2018-07-21T01:37:58.028Z,74.70
2018-07-21T01:42:54.076Z,75.40
2018-07-21T01:47:49.781Z,76.70
2018-07-21T01:52:45.318Z,77.40
2018-07-21T01:57:40.817Z,78.50
2018-07-21T02:02:35.884Z,79.70
2018-07-21T02:07:31.069Z,81.00
2018-07-21T02:12:26.409Z,82.00
2018-07-21T02:17:21.524Z,82.70
2018-07-21T02:22:16.670Z,83.50
2018-07-21T02:27:11.787Z,84.10
2018-07-21T02:32:06.858Z,84.70
2018-07-21T02:41:56.921Z,86.30
2018-07-21T02:46:51.634Z,86.50
2018-07-21T02:51:46.967Z,88.10
2018-07-21T02:56:42.777Z,87.80
2018-07-21T03:01:38.090Z,88.40
2018-07-21T03:11:28.884Z,90.00
2018-07-21T03:16:23.946Z,90.40
2018-07-21T03:21:19.308Z,90.70
2018-07-21T03:26:13.875Z,91.20
2018-07-21T03:31:09.492Z,91.90
2018-07-21T03:36:04.814Z,92.70
2018-07-21T03:40:59.768Z,92.40
2018-07-21T03:45:54.818Z,92.80
2018-07-21T03:50:50.667Z,92.70
2018-07-21T03:55:46.823Z,93.00
2018-07-21T04:00:42.221Z,93.20
2018-07-21T04:05:37.448Z,93.50
2018-07-21T04:10:33.383Z,94.00
2018-07-21T04:15:28.297Z,94.40
2018-07-21T04:20:23.799Z,94.90
2018-07-21T04:25:20.185Z,95.50
2018-07-21T04:30:15.946Z,95.70
2018-07-21T04:35:11.942Z,95.60
2018-07-21T04:40:08.126Z,95.30
2018-07-21T04:45:04.022Z,94.80
2018-07-21T04:49:59.181Z,94.60
2018-07-21T04:54:54.520Z,94.80
2018-07-21T04:59:50.075Z,95.10
2018-07-21T05:09:40.543Z,95.50
2018-07-21T05:14:35.679Z,96.10
2018-07-21T05:19:31.629Z,95.90
2018-07-21T05:24:27.050Z,95.70
2018-07-21T05:29:21.590Z,95.80
2018-07-21T05:34:16.079Z,95.70
2018-07-21T05:39:12.011Z,95.20
2018-07-21T05:44:07.879Z,93.40
2018-07-21T05:49:03.947Z,88.30
2018-07-21T05:53:59.019Z,81.40
2018-07-21T05:58:54.714Z,79.20
2018-07-21T06:03:52.428Z,75.60
2018-07-21T06:08:47.834Z,68.30
2018-07-21T06:13:42.827Z,59.60
2018-07-21T06:18:37.626Z,52.10
2018-07-21T06:23:33.166Z,50.10
2018-07-21T06:28:29.089Z,51.20
2018-07-21T06:33:25.045Z,52.00
2018-07-21T06:38:20.523Z,50.50
2018-07-21T06:43:16.293Z,49.20
2018-07-21T06:48:12.228Z,48.50
2018-07-21T06:53:07.607Z,47.40
2018-07-21T06:58:03.982Z,47.30
2018-07-21T07:02:59.916Z,47.40
2018-07-21T07:17:46.652Z,48.30
2018-07-21T07:22:41.979Z,45.90
2018-07-21T07:27:37.656Z,43.50
2018-07-21T07:32:33.002Z,41.60
2018-07-21T07:37:28.607Z,39.00
2018-07-21T07:47:18.504Z,39.60
2018-07-21T07:52:13.541Z,37.40
2018-07-21T07:57:10.978Z,36.60
2018-07-21T08:02:06.068Z,37.90
2018-07-21T08:11:56.457Z,31.70
2018-07-21T08:16:51.826Z,28.30
2018-07-21T08:21:46.751Z,25.70
2018-07-21T08:26:42.708Z,23.30
2018-07-21T08:31:37.864Z,21.50
2018-07-21T08:36:33.844Z,20.30
2018-07-21T08:41:29.296Z,19.90
2018-07-21T08:46:24.417Z,18.90
2018-07-21T08:51:20.071Z,18.10
2018-07-21T08:56:14.937Z,17.20
2018-07-21T09:01:10.370Z,16.70
2018-07-21T09:06:05.523Z,16.30
2018-07-21T09:11:00.834Z,15.80
2018-07-21T09:15:56.321Z,15.40
2018-07-21T09:20:51.835Z,14.80
2018-07-21T09:25:46.910Z,16.00
2018-07-21T09:30:42.669Z,17.20
2018-07-21T09:35:38.431Z,17.70
2018-07-21T09:40:33.504Z,16.60
2018-07-21T09:45:29.017Z,15.60
2018-07-21T09:50:24.126Z,15.20
2018-07-21T09:55:19.490Z,14.90
2018-07-21T10:00:18.901Z,15.00
2018-07-21T10:05:14.280Z,17.60
2018-07-21T10:10:09.040Z,20.20
2018-07-21T10:19:59.282Z,24.60
2018-07-21T10:24:59.627Z,26.20
2018-07-21T10:29:55.095Z,27.10
2018-07-21T10:34:50.323Z,28.10
2018-07-21T10:39:46.074Z,28.80
2018-07-21T10:44:41.606Z,31.30
2018-07-21T10:49:36.414Z,32.30
2018-07-21T10:54:32.912Z,32.50
2018-07-21T10:59:28.671Z,32.20
2018-07-21T11:04:24.130Z,32.60
2018-07-21T11:09:19.431Z,32.00
2018-07-21T11:14:15.127Z,32.10
2018-07-21T11:19:10.679Z,32.00
2018-07-21T11:24:05.865Z,31.60
2018-07-21T11:38:51.766Z,32.40
2018-07-21T11:43:47.200Z,32.60
2018-07-21T11:48:42.361Z,32.80
2018-07-21T11:53:37.720Z,32.50
2018-07-21T12:03:28.243Z,31.50
2018-07-21T12:08:23.823Z,31.10
2018-07-21T12:13:18.755Z,30.70
2018-07-21T12:23:10.083Z,31.90
2018-07-21T12:28:05.470Z,32.20
2018-07-21T12:33:00.900Z,32.00
2018-07-21T12:37:56.483Z,33.00
2018-07-21T12:42:52.416Z,33.30
2018-07-21T12:47:47.452Z,32.70
2018-07-21T12:52:44.210Z,32.30
2018-07-21T12:57:39.118Z,32.10
2018-07-21T13:02:36.198Z,31.50
2018-07-21T13:07:31.218Z,31.00
2018-07-21T13:12:26.827Z,30.10
2018-07-21T13:17:22.098Z,29.80
2018-07-21T13:22:17.201Z,29.70
2018-07-21T13:27:12.079Z,29.50
2018-07-21T13:37:01.617Z,31.00
2018-07-21T13:41:56.998Z,31.70
2018-07-21T13:46:52.836Z,31.60
2018-07-21T13:51:48.547Z,31.70
2018-07-21T13:56:44.153Z,32.00
2018-07-21T14:01:40.122Z,32.30
2018-07-21T14:06:35.434Z,32.10
2018-07-21T14:11:30.716Z,31.80
2018-07-21T14:16:26.180Z,32.30
2018-07-21T14:21:21.552Z,32.70
2018-07-21T14:31:11.869Z,33.20
2018-07-21T14:36:07.703Z,33.20
2018-07-21T14:41:03.866Z,33.20
2018-07-21T14:50:54.829Z,33.00
2018-07-21T14:55:49.902Z,33.30
2018-07-21T15:00:45.624Z,33.50
2018-07-21T15:05:41.438Z,33.50
2018-07-21T15:10:39.608Z,33.80
2018-07-21T15:20:31.554Z,33.80
2018-07-21T15:25:27.932Z,33.20
2018-07-21T15:30:23.070Z,33.20
2018-07-21T15:40:14.085Z,32.80
2018-07-21T15:45:09.602Z,32.20
2018-07-21T15:50:05.153Z,31.80
2018-07-21T15:54:59.913Z,32.00
2018-07-21T15:59:54.633Z,32.20
2018-07-21T16:04:49.533Z,32.60
2018-07-21T16:14:38.847Z,41.00
2018-07-21T16:19:34.336Z,43.80
2018-07-21T16:24:30.564Z,45.70
2018-07-21T16:29:26.214Z,46.90
2018-07-21T16:34:24.396Z,48.80
2018-07-21T16:39:19.683Z,51.10
2018-07-21T16:44:14.753Z,53.60
2018-07-21T16:49:09.926Z,54.80
2018-07-21T16:54:05.455Z,56.40
2018-07-21T16:59:00.248Z,56.70
2018-07-21T17:03:55.342Z,57.80
2018-07-21T17:13:44.538Z,57.80
2018-07-21T17:18:39.742Z,58.30
2018-07-21T17:23:35.094Z,58.40
2018-07-21T17:28:29.837Z,57.90
2018-07-21T17:33:24.734Z,58.60
2018-07-21T17:43:14.355Z,58.90
2018-07-21T17:48:09.476Z,58.50
2018-07-21T17:57:59.596Z,58.30
2018-07-21T18:02:55.222Z,58.20
2018-07-21T18:07:49.884Z,57.80
2018-07-21T18:12:44.656Z,57.70
2018-07-21T18:22:34.054Z,57.80
2018-07-21T18:27:28.898Z,58.80
2018-07-21T18:37:17.734Z,62.50
2018-07-21T18:42:12.459Z,63.80
2018-07-21T18:47:06.728Z,65.10
2018-07-21T18:52:01.259Z,66.10
2018-07-21T18:56:56.220Z,67.50
2018-07-21T19:01:50.809Z,69.10
2018-07-21T19:06:45.323Z,71.50
2018-07-21T19:11:39.875Z,72.10
2018-07-21T19:16:43.062Z,72.90
2018-07-21T19:21:37.754Z,73.90
2018-07-21T19:26:37.703Z,75.60
2018-07-21T19:31:32.184Z,77.10
2018-07-21T19:36:26.974Z,78.70
2018-07-21T19:41:26.554Z,80.00
2018-07-21T19:51:15.513Z,82.30
2018-07-21T19:56:10.216Z,83.60
2018-07-21T20:01:04.770Z,84.90
2018-07-21T20:05:59.644Z,87.00
2018-07-21T20:10:54.217Z,88.10
2018-07-21T20:20:43.592Z,90.70
2018-07-21T20:25:38.532Z,91.40
2018-07-21T20:30:33.121Z,92.00
2018-07-21T20:35:28.174Z,92.60
2018-07-21T20:45:17.166Z,94.00
2018-07-21T20:50:11.996Z,94.30
2018-07-21T20:55:07.517Z,94.70
2018-07-21T21:00:02.285Z,95.00
2018-07-21T21:09:51.440Z,95.90
2018-07-21T21:14:46.028Z,96.40
2018-07-21T21:19:40.483Z,96.90
2018-07-21T21:24:34.977Z,97.30
2018-07-21T21:29:29.569Z,97.70
2018-07-21T21:39:18.346Z,97.70
2018-07-21T21:44:12.853Z,97.80
2018-07-21T21:49:07.542Z,98.40
2018-07-21T21:54:02.170Z,98.50
2018-07-21T21:58:56.811Z,99.10
2018-07-21T22:03:51.331Z,99.10
2018-07-21T22:08:45.991Z,99.50
2018-07-21T22:13:40.446Z,99.90
2018-07-21T22:18:35.250Z,99.90
2018-07-21T22:33:18.350Z,99.90
2018-07-21T22:43:07.122Z,98.70
2018-07-21T22:48:01.722Z,98.50
2018-07-21T22:52:56.334Z,98.40
2018-07-21T22:57:51.218Z,98.10
2018-07-21T23:02:45.750Z,97.90
2018-07-21T23:07:40.281Z,97.80
2018-07-21T23:12:35.066Z,97.70
2018-07-21T23:17:29.536Z,97.50
2018-07-21T23:22:24.067Z,97.50
2018-07-21T23:27:18.562Z,97.60
2018-07-21T23:32:13.059Z,97.80
2018-07-21T23:37:07.728Z,97.80
2018-07-21T23:42:02.254Z,98.00
2018-07-21T23:46:56.915Z,98.10
2018-07-21T23:51:51.571Z,97.80
